Willow Grove, PA

3:17 AM EST on February 27, 2015 (GMT -0500)
Fitzwatertown | Change Station
CLOSE
Current Station
Personal Weather Station
Location: Willow Grove, PA
Elevation: 295 ft
Nearby Weather Stations

Elev 295 ft 40.15 °N, 75.13 °W | Updated 12 minutes ago

Overcast
Overcast
22.5 °F
Feels Like 22 °F
N
1.0
Wind Variable Wind from NE
Gusts 3.0 mph

Today
High -- | Low -- °F
--% Chance of Precip.
Yesterday
High -- | Low -- °F
Precip. -- in
6:37 AM 5:49 PM
Waxing Gibbous, 66% visible
Pressure 30.23 in
Visibility 10.0 miles
Clouds Overcast 6000 ft
Windchill 22 °F
Dew Point 15 °F
Humidity 74%
Rainfall 0.00 in
Snow Depth Not available.
UV 0 out of 12
Pollen .50 out of 12
Air Quality Not available.
Flu Activity Not available.
METAR KPNE 270754Z AUTO 36008KT 10SM OVC060 M04/M11 A3023 RMK AO2 SLP237 T10391106 TSNO $

More Conditions Fewer Conditions

Pressure 30.23 in
Visibility 10.0 miles
Clouds Overcast 6000 ft
Windchill 22 °F
Dew Point 15 °F
Humidity 74%
Rainfall 0.00 in
Snow Depth Not available.
UV 0 out of 12
Pollen .50 out of 12
Air Quality Not available.
Flu Activity Not available.
METAR KPNE 270754Z AUTO 36008KT 10SM OVC060 M04/M11 A3023 RMK AO2 SLP237 T10391106 TSNO $

More Conditions Fewer Conditions

10-Day Weather Forecast

Almanac

Astronomy

Feb. 27, 2015 Rise Set
Actual Time
Civil Twilight
Nautical Twilight
Astronomical Twilight
Moon
Length of Visible Light
Length of Day
Tomorrow will be .
, % of the Moon is Illuminated

Today's Extremes

State Highs State Lows

Community

WunderPhotos

Upload Photos

1,800,649 photos uploaded!

WunderBlogs® & News

Nearby

Air Quality

  Air Quality AQ Index Pollutant
Not available.

Snow Depth

Station Depth Elevation

Earthquake Activity

City Distance Mag. Time & Date
Minimum magnitude displayed is 2.5.

Coastal Water Temperatures

Place Temperature

Nearby Weather Stations